Time;durP1;ratioP1;P1;durP2;ratioP2;P2;SDS_P1;SDS_P2;PMS_P1;PMS_P2;Temp;Humidity;BMP_temperature;BMP_pressure;BME280_temperature;BME280_humidity;BME280_pressure;Samples;Min_cycle;Max_cycle;Signal;HPM_P1;HPM_P2
2021/01/18 00:02:22;;;;;;;21.20;8.07;;;;;;;-14.65;66.11;99557.10;124407;1148;22672;-68
2021/01/18 00:04:49;;;;;;;20.70;7.17;;;;;;;-14.68;65.73;99564.20;124061;1148;22657;-67
2021/01/18 00:07:17;;;;;;;19.73;7.23;;;;;;;-14.67;66.54;99565.87;124297;1147;22646;-68
2021/01/18 00:09:46;;;;;;;19.00;6.83;;;;;;;-14.71;66.53;99572.23;124084;1145;22725;-68
2021/01/18 00:12:14;;;;;;;20.33;7.90;;;;;;;-14.76;65.93;99579.55;124364;1148;22680;-68
2021/01/18 00:14:42;;;;;;;27.33;9.07;;;;;;;-14.74;66.68;99571.62;124086;1148;22701;-68
2021/01/18 00:17:09;;;;;;;23.13;8.00;;;;;;;-14.77;65.61;99579.65;124318;1147;22703;-68
2021/01/18 00:19:37;;;;;;;24.17;8.63;;;;;;;-14.82;66.30;99579.09;123972;1149;22803;-68
2021/01/18 00:22:04;;;;;;;27.43;9.00;;;;;;;-14.88;66.64;99576.88;124257;1148;22782;-68
2021/01/18 00:24:32;;;;;;;26.80;9.40;;;;;;;-14.92;66.87;99580.62;124252;1148;22710;-68
2021/01/18 00:26:59;;;;;;;23.57;10.07;;;;;;;-14.92;66.69;99573.61;124320;1148;22693;-68
2021/01/18 00:29:26;;;;;;;26.63;8.50;;;;;;;-14.86;68.23;99573.24;124084;1148;22747;-67
2021/01/18 00:31:54;;;;;;;22.10;7.83;;;;;;;-14.77;67.45;99570.03;124297;1148;22678;-68
2021/01/18 00:34:22;;;;;;;25.17;9.20;;;;;;;-14.72;67.78;99570.59;124155;1148;22679;-68
2021/01/18 00:36:50;;;;;;;25.67;8.17;;;;;;;-14.69;67.41;99567.75;124122;1148;22667;-68
2021/01/18 00:39:17;;;;;;;22.37;8.73;;;;;;;-14.56;67.13;99580.03;124356;1146;23319;-68
2021/01/18 00:41:45;;;;;;;29.10;10.57;;;;;;;-14.50;66.73;99571.80;124219;1147;22671;-68
2021/01/18 00:44:12;;;;;;;25.27;10.07;;;;;;;-14.45;66.57;99567.13;124386;1148;22705;-68
2021/01/18 00:46:39;;;;;;;27.63;10.10;;;;;;;-14.50;67.22;99570.03;121190;1148;22932;-68
2021/01/18 00:49:07;;;;;;;25.63;9.03;;;;;;;-14.53;66.15;99562.38;124264;1148;22758;-68
2021/01/18 00:51:36;;;;;;;26.07;9.40;;;;;;;-14.55;66.47;99568.64;123952;1149;23284;-68
2021/01/18 00:54:04;;;;;;;23.37;9.60;;;;;;;-14.60;66.06;99568.95;124397;1148;22682;-68
2021/01/18 00:56:33;;;;;;;29.90;9.27;;;;;;;-14.64;66.61;99575.31;123962;1149;22696;-68
2021/01/18 00:59:00;;;;;;;25.10;8.57;;;;;;;-14.71;66.45;99572.23;124294;1147;22672;-68
2021/01/18 01:01:57;;;;;;;19.03;6.93;;;;;;;-14.81;66.23;99581.61;124157;1148;23698;-68
2021/01/18 01:04:26;;;;;;;25.83;8.33;;;;;;;-14.89;66.34;99577.81;124155;1149;23303;-68
2021/01/18 01:06:53;;;;;;;19.67;7.80;;;;;;;-14.98;66.07;99578.38;124183;1148;22674;-68
2021/01/18 01:09:22;;;;;;;26.23;9.17;;;;;;;-15.03;66.30;99573.45;124295;1148;22956;-68
2021/01/18 01:11:49;;;;;;;24.53;8.77;;;;;;;-15.13;65.99;99577.55;124111;1148;22681;-68
2021/01/18 01:14:17;;;;;;;31.30;9.10;;;;;;;-15.20;67.35;99571.89;124190;1148;22662;-68
2021/01/18 01:16:44;;;;;;;21.37;8.20;;;;;;;-15.19;67.19;99563.12;124079;1148;22719;-68
2021/01/18 01:19:12;;;;;;;18.67;8.27;;;;;;;-15.13;66.60;99575.78;120861;1148;22920;-68
2021/01/18 01:21:39;;;;;;;25.57;8.63;;;;;;;-15.17;67.42;99581.31;124106;1145;22763;-68
2021/01/18 01:24:06;;;;;;;31.17;9.63;;;;;;;-15.22;67.01;99572.91;124160;1148;22696;-68
2021/01/18 01:30:52;;;;;;;31.10;10.00;;;;;;;-15.25;67.12;99587.00;124400;1148;23482;-68
2021/01/18 01:33:20;;;;;;;36.20;11.37;;;;;;;-15.24;67.71;99569.55;124134;1146;23444;-69
2021/01/18 01:35:47;;;;;;;31.23;10.43;;;;;;;-15.20;67.79;99571.89;124274;1148;26879;-68
2021/01/18 01:38:15;;;;;;;32.10;9.53;;;;;;;-15.17;67.59;99576.09;124212;1147;22686;-68
2021/01/18 01:40:43;;;;;;;29.57;8.13;;;;;;;-15.21;67.53;99575.44;124329;1146;22677;-68
2021/01/18 01:43:10;;;;;;;25.23;8.27;;;;;;;-15.22;67.86;99571.14;124048;1147;22664;-68
2021/01/18 01:45:37;;;;;;;24.53;8.47;;;;;;;-15.18;67.70;99574.41;123431;1148;23497;-68
2021/01/18 01:48:05;;;;;;;23.00;8.80;;;;;;;-15.21;66.59;99569.37;124088;1146;22746;-68
2021/01/18 01:50:34;;;;;;;23.83;9.27;;;;;;;-15.30;67.22;99568.17;124178;1148;23435;-68
2021/01/18 01:53:16;;;;;;;27.90;9.50;;;;;;;-15.35;67.06;99564.16;124214;1148;22659;-68
2021/01/18 01:55:44;;;;;;;26.27;8.97;;;;;;;-15.39;66.82;99560.89;124159;1148;22797;-68
2021/01/18 01:58:11;;;;;;;30.00;9.37;;;;;;;-15.32;66.69;99556.14;124052;1146;22685;-68
2021/01/18 02:00:39;;;;;;;34.00;9.63;;;;;;;-15.25;67.47;99554.81;124316;1147;22699;-68
2021/01/18 02:03:11;;;;;;;39.80;10.83;;;;;;;-15.22;66.77;99554.62;124096;1148;22687;-68
2021/01/18 02:05:39;;;;;;;32.37;9.80;;;;;;;-15.25;65.75;99552.20;124128;1148;22749;-68
2021/01/18 02:08:08;;;;;;;25.83;9.77;;;;;;;-15.32;66.46;99556.14;124090;1145;22856;-68
2021/01/18 02:10:36;;;;;;;28.33;9.57;;;;;;;-15.30;66.43;99562.11;124209;1147;22711;-68
2021/01/18 02:13:30;;;;;;;25.27;8.80;;;;;;;-15.37;66.08;99564.25;124114;1148;22682;-68
2021/01/18 02:16:08;;;;;;;34.83;11.83;;;;;;;-15.43;65.77;99559.39;124312;1146;22692;-68
2021/01/18 02:18:55;;;;;;;28.97;9.50;;;;;;;-15.52;65.94;99563.41;124016;1146;22689;-68
2021/01/18 02:21:41;;;;;;;23.60;9.67;;;;;;;-15.63;65.58;99560.66;124263;1147;23404;-68
2021/01/18 02:24:11;;;;;;;22.10;7.37;;;;;;;-15.65;65.93;99567.73;124179;1148;22699;-68
2021/01/18 02:27:09;;;;;;;33.50;8.27;;;;;;;-15.69;67.05;99563.62;124301;1146;22680;-68
2021/01/18 02:29:48;;;;;;;;;;;;;;;-15.68;65.77;99561.84;124137;1148;22693;-68
2021/01/18 02:32:25;;;;;;;14.80;5.50;;;;;;;-15.65;67.02;99572.11;124325;1147;21416;-68
2021/01/18 02:35:14;;;;;;;26.43;7.70;;;;;;;-15.68;66.08;99567.07;124062;1145;23395;-68
2021/01/18 02:37:47;;;;;;;23.03;8.23;;;;;;;-15.67;66.51;99573.97;124171;1149;23479;-67
2021/01/18 02:40:34;;;;;;;24.43;9.77;;;;;;;-15.61;66.78;99571.84;124102;1148;22662;-68
2021/01/18 02:43:05;;;;;;;16.75;6.05;;;;;;;-15.54;66.59;99574.87;124155;1146;22695;-68
2021/01/18 02:45:33;;;;;;;28.63;9.30;;;;;;;-15.61;65.40;99565.78;124001;1149;23304;-67
2021/01/18 02:48:01;;;;;;;25.43;9.80;;;;;;;-15.61;65.50;99568.39;124280;1148;22676;-68
2021/01/18 02:50:29;;;;;;;28.60;9.90;;;;;;;-15.62;66.72;99569.33;124157;1148;22701;-68
2021/01/18 02:52:57;;;;;;;30.73;9.40;;;;;;;-15.59;66.44;99583.05;124307;1146;22679;-68
2021/01/18 02:55:24;;;;;;;32.27;9.47;;;;;;;-15.55;66.53;99576.68;123652;1146;22793;-67
2021/01/18 02:57:52;;;;;;;32.50;10.80;;;;;;;-15.53;66.14;99580.01;119694;1148;26009;-67
2021/01/18 03:00:25;;;;;;;23.37;8.63;;;;;;;-15.52;65.01;99589.52;124049;1148;22733;-67
2021/01/18 03:03:14;;;;;;;28.27;8.43;;;;;;;-15.50;65.35;99585.05;124177;1148;22674;-67
2021/01/18 03:06:10;;;;;;;26.53;9.20;;;;;;;-15.51;64.98;99585.14;124059;1148;25639;-67
2021/01/18 03:08:39;;;;;;;25.20;8.93;;;;;;;-15.51;64.69;99585.14;124204;1148;22742;-67
2021/01/18 03:11:13;;;;;;;29.00;8.70;;;;;;;-15.53;65.89;99579.17;124024;1148;22675;-67
2021/01/18 03:14:03;;;;;;;26.70;8.10;;;;;;;-15.52;64.43;99579.08;124134;1148;22707;-67
2021/01/18 03:16:38;;;;;;;31.37;9.83;;;;;;;-15.52;65.60;99584.30;124169;1147;23739;-68
2021/01/18 03:19:05;;;;;;;20.53;9.57;;;;;;;-15.52;64.19;99586.91;124212;1148;22702;-67
2021/01/18 03:21:33;;;;;;;33.70;10.57;;;;;;;-15.51;64.81;99582.53;124249;1148;24032;-68
2021/01/18 03:24:00;;;;;;;41.67;12.13;;;;;;;-15.49;64.88;99591.95;124244;1146;23309;-67
2021/01/18 03:26:27;;;;;;;30.33;11.07;;;;;;;-15.50;65.02;99587.66;121646;1148;22930;-67
2021/01/18 03:28:56;;;;;;;37.80;10.33;;;;;;;-15.56;64.76;99587.21;124204;1145;22747;-67
2021/01/18 03:31:23;;;;;;;29.87;9.37;;;;;;;-15.56;65.55;99595.89;124064;1148;22682;-68
2021/01/18 03:33:51;;;;;;;26.03;10.07;;;;;;;-15.64;64.97;99592.07;124317;1146;23240;-67
2021/01/18 03:36:18;;;;;;;20.13;7.93;;;;;;;-15.81;64.07;99598.28;124307;1148;22677;-67
2021/01/18 03:38:46;;;;;;;18.63;8.40;;;;;;;-15.98;64.23;99606.27;124198;1148;23466;-67
2021/01/18 03:41:13;;;;;;;19.23;7.10;;;;;;;-16.13;65.24;99601.00;124237;1148;22701;-67
2021/01/18 03:43:41;;;;;;;21.13;6.93;;;;;;;-16.25;64.31;99600.88;124056;1148;22697;-67
2021/01/18 03:46:09;;;;;;;26.17;8.03;;;;;;;-16.31;66.20;99606.46;124166;1148;22680;-67
2021/01/18 03:48:37;;;;;;;22.03;7.80;;;;;;;-16.29;66.12;99600.20;124011;1148;22702;-67
2021/01/18 03:51:04;;;;;;;18.97;8.03;;;;;;;-16.34;66.34;99601.41;124194;1148;23263;-67
2021/01/18 03:53:32;;;;;;;20.77;7.97;;;;;;;-16.34;66.61;99596.20;124171;1148;22700;-67
2021/01/18 03:56:00;;;;;;;19.33;6.73;;;;;;;-16.26;65.40;99597.42;124364;1148;22702;-67
2021/01/18 04:03:28;;;;;;;15.03;5.50;;;;;;;-16.09;66.36;99587.80;124174;1148;22692;-67
2021/01/18 04:06:08;;;;;;;16.80;5.33;;;;;;;-16.17;65.23;99577.81;124327;1148;23314;-67
2021/01/18 04:08:36;;;;;;;13.87;6.43;;;;;;;-16.09;64.95;99588.63;124158;1148;22781;-67
2021/01/18 04:11:04;;;;;;;19.93;6.93;;;;;;;-16.23;65.03;99586.83;124185;1148;22677;-67
2021/01/18 04:13:31;;;;;;;23.80;9.20;;;;;;;-16.37;65.32;99589.39;123975;1148;23736;-67
2021/01/18 04:15:59;;;;;;;21.13;7.40;;;;;;;-16.50;65.34;99588.41;124232;1148;22629;-68
2021/01/18 04:18:27;;;;;;;22.43;8.00;;;;;;;-16.53;66.85;99591.18;124015;1148;22739;-67
2021/01/18 04:20:54;;;;;;;21.93;8.07;;;;;;;-16.57;65.94;99589.66;124342;1148;22830;-67
2021/01/18 04:23:22;;;;;;;25.63;8.07;;;;;;;-16.58;66.11;99590.59;124123;1147;22684;-67
2021/01/18 04:25:49;;;;;;;25.67;8.10;;;;;;;-16.53;66.43;99599.00;123097;1147;26363;-69
2021/01/18 04:28:16;;;;;;;27.13;8.20;;;;;;;-16.48;66.87;99594.38;119621;1148;27635;-69
2021/01/18 04:30:44;;;;;;;22.07;8.33;;;;;;;-16.40;66.57;99593.93;119768;1148;22939;-69
2021/01/18 04:33:12;;;;;;;21.47;7.33;;;;;;;-16.44;66.29;99595.86;120009;1148;26363;-69
2021/01/18 04:35:39;;;;;;;23.13;7.10;;;;;;;-16.46;65.91;99602.95;119919;1148;24587;-69
2021/01/18 04:38:07;;;;;;;23.43;8.63;;;;;;;-16.47;65.69;99602.12;124288;1148;22739;-68
2021/01/18 04:40:35;;;;;;;28.37;8.23;;;;;;;-16.41;66.56;99603.52;124313;1146;22677;-68
2021/01/18 04:43:02;;;;;;;29.17;10.83;;;;;;;-16.43;65.96;99597.55;124333;1148;23385;-68
2021/01/18 04:45:30;;;;;;;39.13;10.70;;;;;;;-16.41;66.48;99602.67;124110;1148;22720;-68
2021/01/18 04:47:58;;;;;;;36.37;10.10;;;;;;;-16.37;66.42;99604.19;124367;1145;23563;-69
2021/01/18 04:50:27;;;;;;;36.27;9.97;;;;;;;-16.32;65.72;99608.23;124203;1146;23273;-69
2021/01/18 04:52:57;;;;;;;27.03;9.47;;;;;;;-16.26;65.41;99607.86;124143;1149;23469;-69
2021/01/18 04:55:39;;;;;;;28.80;8.23;;;;;;;-16.18;65.88;99617.87;124182;1148;22681;-69
2021/01/18 04:58:14;;;;;;;27.27;9.30;;;;;;;-16.13;66.05;99619.27;124205;1148;23732;-69
2021/01/18 05:00:49;;;;;;;30.57;10.77;;;;;;;-16.08;65.90;99616.40;124088;1149;23284;-69
2021/01/18 05:03:19;;;;;;;23.67;9.17;;;;;;;-16.09;65.81;99609.50;124324;1148;22681;-68
2021/01/18 05:05:54;;;;;;;34.07;10.17;;;;;;;-16.06;64.69;99614.55;123994;1148;23996;-68
2021/01/18 05:08:36;;;;;;;25.23;9.47;;;;;;;-16.02;64.49;99617.83;124231;1148;23719;-68
2021/01/18 05:11:03;;;;;;;25.27;7.80;;;;;;;-16.03;64.96;99619.59;124062;1147;22726;-68
2021/01/18 05:13:31;;;;;;;24.30;8.30;;;;;;;-16.08;64.43;99620.78;124182;1148;23312;-69
2021/01/18 05:16:01;;;;;;;27.93;8.87;;;;;;;-16.12;65.51;99633.98;124298;1146;22701;-68
2021/01/18 05:18:33;;;;;;;27.13;9.53;;;;;;;-16.14;64.65;99629.78;124324;1148;22675;-67
2021/01/18 05:21:06;;;;;;;23.23;8.97;;;;;;;-16.14;64.46;99637.61;124104;1148;23955;-69
2021/01/18 05:23:41;;;;;;;25.77;10.37;;;;;;;-16.11;65.55;99643.50;124285;1148;22677;-69
2021/01/18 05:26:19;;;;;;;34.20;12.50;;;;;;;-16.13;64.27;99645.35;124373;1146;22688;-68
2021/01/18 05:28:47;;;;;;;41.70;12.07;;;;;;;-16.14;65.55;99651.49;124443;1146;22849;-68
2021/01/18 05:31:27;;;;;;;47.97;13.67;;;;;;;-16.08;64.29;99650.31;124372;1146;22724;-68
2021/01/18 05:34:15;;;;;;;40.00;13.53;;;;;;;-16.06;64.88;99648.47;124492;1146;23460;-69
2021/01/18 05:36:47;;;;;;;42.57;12.80;;;;;;;-16.05;63.97;99652.75;124299;1145;22675;-69
2021/01/18 05:39:19;;;;;;;38.63;14.67;;;;;;;-16.06;64.86;99658.90;124474;1146;22696;-69
2021/01/18 05:41:53;;;;;;;43.63;15.40;;;;;;;-16.04;63.76;99657.05;124276;1146;22796;-69
2021/01/18 05:44:29;;;;;;;44.53;14.40;;;;;;;-16.02;64.12;99656.96;124472;1146;22674;-69
2021/01/18 05:47:04;;;;;;;46.17;14.10;;;;;;;-16.01;63.54;99659.45;124321;1146;22789;-67
2021/01/18 05:49:42;;;;;;;43.83;17.17;;;;;;;-15.99;63.08;99667.20;124449;1146;22706;-69
2021/01/18 05:52:41;;;;;;;50.10;14.33;;;;;;;-15.98;64.33;99664.50;124308;1146;22705;-69
2021/01/18 05:55:25;;;;;;;47.97;12.90;;;;;;;-16.00;63.53;99668.97;124004;1149;22733;-69
2021/01/18 05:58:02;;;;;;;44.20;11.67;;;;;;;-16.00;64.42;99683.78;123914;1149;22715;-69
2021/01/18 06:00:31;;;;;;;;;;;;;;;-16.02;63.93;99672.62;124065;1149;22702;-69
2021/01/18 06:03:00;;;;;;;28.83;8.47;;;;;;;-16.12;64.19;99682.71;124083;1149;23314;-69
2021/01/18 06:05:32;;;;;;;30.10;10.10;;;;;;;-16.11;65.07;99679.18;124148;1149;22715;-69
2021/01/18 06:08:18;;;;;;;22.05;9.45;;;;;;;-16.11;64.69;99684.40;123993;1149;23644;-69
2021/01/18 06:10:47;;;;;;;28.23;10.77;;;;;;;-16.04;64.64;99670.09;124096;1149;22765;-69
2021/01/18 06:13:33;;;;;;;30.47;12.67;;;;;;;-15.95;64.11;99692.20;124008;1149;23578;-69
2021/01/18 06:16:05;;;;;;;29.90;10.70;;;;;;;-16.01;64.38;99685.55;124203;1149;22720;-69
2021/01/18 06:18:33;;;;;;;37.10;12.53;;;;;;;-16.00;64.83;99684.62;123966;1149;22723;-69
2021/01/18 06:21:05;;;;;;;31.00;11.47;;;;;;;-16.00;64.46;99675.95;124053;1149;22709;-69
2021/01/18 06:23:32;;;;;;;27.40;9.97;;;;;;;-16.01;65.01;99682.94;124017;1149;22704;-69
2021/01/18 06:26:00;;;;;;;26.03;9.47;;;;;;;-16.09;65.60;99682.55;124107;1149;22852;-68
2021/01/18 06:28:32;;;;;;;27.40;10.83;;;;;;;-16.12;65.44;99688.77;124048;1148;22782;-69
2021/01/18 06:31:00;;;;;;;33.53;11.17;;;;;;;-16.03;65.17;99689.20;124194;1146;22688;-69
2021/01/18 06:33:47;;;;;;;28.30;10.77;;;;;;;-15.92;65.30;99690.26;124238;1145;22720;-69
2021/01/18 06:36:21;;;;;;;27.67;8.73;;;;;;;-15.86;66.08;99695.11;122607;1146;22996;-68
2021/01/18 06:38:51;;;;;;;34.37;9.53;;;;;;;-15.85;66.62;99694.18;124220;1146;23470;-69
2021/01/18 06:41:23;;;;;;;23.30;10.53;;;;;;;-15.81;65.59;99693.09;124449;1146;23867;-68
2021/01/18 06:43:50;;;;;;;34.87;11.73;;;;;;;-15.70;66.35;99694.23;124338;1146;22689;-68
2021/01/18 06:46:24;;;;;;;23.10;9.37;;;;;;;-15.63;66.09;99692.95;124399;1146;22671;-66
2021/01/18 06:48:52;;;;;;;35.30;12.23;;;;;;;-15.53;66.85;99691.45;124253;1146;22695;-74
2021/01/18 06:51:21;;;;;;;32.73;13.10;;;;;;;-15.49;65.87;99698.17;121053;1146;22919;-66
2021/01/18 06:53:49;;;;;;;25.93;10.97;;;;;;;-15.49;65.96;99704.24;124426;1145;23415;-67
2021/01/18 06:56:29;;;;;;;32.43;10.40;;;;;;;-15.48;65.81;99703.31;124280;1146;22708;-67
2021/01/18 06:59:04;;;;;;;30.03;11.80;;;;;;;-15.46;66.79;99708.45;124458;1146;22671;-68
2021/01/18 07:01:38;;;;;;;34.50;12.70;;;;;;;-15.48;66.28;99708.54;124326;1145;22691;-68
2021/01/18 07:04:10;;;;;;;29.65;11.75;;;;;;;-15.54;65.58;99708.05;124336;1146;23462;-67
2021/01/18 07:06:38;;;;;;;36.20;12.50;;;;;;;-15.58;66.12;99712.66;124296;1146;23383;-66
2021/01/18 07:09:07;;;;;;;35.07;11.03;;;;;;;-15.60;66.52;99717.13;124398;1146;22800;-67
2021/01/18 07:12:18;;;;;;;32.07;10.67;;;;;;;-15.64;66.67;99717.38;124290;1146;22937;-66
2021/01/18 07:14:46;;;;;;;35.83;12.33;;;;;;;-15.61;67.81;99718.05;124237;1145;23813;-66
2021/01/18 07:17:13;;;;;;;41.87;12.43;;;;;;;-15.50;66.90;99718.23;124378;1146;23373;-66
2021/01/18 07:19:47;;;;;;;44.83;16.23;;;;;;;-15.38;67.00;99727.11;124341;1147;22668;-66
2021/01/18 07:22:40;;;;;;;33.42;12.18;;;;;;;-15.29;66.81;99721.33;124366;1146;23578;-66
2021/01/18 07:27:44;;;;;;;33.27;10.40;;;;;;;-15.21;66.84;99719.13;120195;1148;22991;-64
2021/01/18 07:30:12;;;;;;;43.90;14.13;;;;;;;-15.13;67.88;99719.48;124161;1147;22850;-66
2021/01/18 07:32:40;;;;;;;36.33;13.07;;;;;;;-15.08;66.74;99717.45;124332;1145;23631;-70
2021/01/18 07:35:08;;;;;;;33.63;13.10;;;;;;;-14.97;66.77;99718.56;124382;1147;22700;-70
2021/01/18 07:37:36;;;;;;;39.47;13.80;;;;;;;-14.97;67.07;99721.19;124263;1147;22696;-70
2021/01/18 07:40:13;;;;;;;46.40;16.70;;;;;;;-14.94;67.65;99724.45;124438;1147;22838;-68
2021/01/18 07:42:41;;;;;;;48.70;15.93;;;;;;;-14.90;66.63;99717.28;124234;1147;22700;-71
2021/01/18 07:45:12;;;;;;;45.70;16.50;;;;;;;-14.89;67.67;99719.80;124346;1146;23237;-72
2021/01/18 07:47:55;;;;;;;40.23;15.93;;;;;;;-14.85;66.78;99723.05;124304;1147;22779;-72
2021/01/18 07:50:38;;;;;;;133.33;44.93;;;;;;;-14.83;67.14;99729.03;124540;1145;22682;-69
2021/01/18 07:53:08;;;;;;;158.93;54.00;;;;;;;-14.90;67.57;99725.96;124269;1147;22726;-70
2021/01/18 07:55:39;;;;;;;90.70;34.83;;;;;;;-14.92;67.22;99727.83;124288;1147;23598;-71
2021/01/18 07:58:16;;;;;;;119.53;46.27;;;;;;;-14.90;68.09;99736.42;124310;1147;23692;-70
2021/01/18 08:00:45;;;;;;;74.03;26.47;;;;;;;-14.79;67.71;99744.44;124435;1147;23261;-69
2021/01/18 08:03:12;;;;;;;74.03;23.57;;;;;;;-14.68;68.10;99739.39;124188;1146;22749;-65
2021/01/18 08:05:43;;;;;;;299.50;98.07;;;;;;;-14.58;66.98;99746.69;124338;1147;23632;-68
2021/01/18 08:08:12;;;;;;;266.77;83.87;;;;;;;-14.59;66.82;99745.85;124278;1147;22676;-70
2021/01/18 08:10:56;;;;;;;178.30;58.17;;;;;;;-14.59;66.80;99750.23;124272;1145;22714;-70
2021/01/18 08:13:49;;;;;;;76.80;20.37;;;;;;;-14.59;67.33;99742.39;124309;1146;22711;-70
2021/01/18 08:16:25;;;;;;;134.37;34.23;;;;;;;-14.50;67.64;99747.89;124406;1146;22676;-70
2021/01/18 08:19:19;;;;;;;174.47;41.30;;;;;;;-14.43;66.77;99743.97;124324;1146;22690;-70
2021/01/18 08:21:58;;;;;;;148.40;35.08;;;;;;;-14.40;67.37;99742.91;124191;1148;23470;-70
2021/01/18 08:24:28;;;;;;;71.57;20.00;;;;;;;-14.43;67.08;99738.74;124168;1147;22672;-70
2021/01/18 08:27:06;;;;;;;51.60;16.10;;;;;;;-14.35;67.77;99746.91;124351;1146;22734;-70
2021/01/18 08:29:50;;;;;;;68.53;17.70;;;;;;;-14.27;66.82;99745.56;124246;1147;22679;-69
2021/01/18 08:32:23;;;;;;;64.07;18.93;;;;;;;-14.16;66.75;99750.98;124335;1146;22662;-70
2021/01/18 08:34:56;;;;;;;117.17;30.37;;;;;;;-14.09;67.25;99753.11;124274;1147;22718;-70
2021/01/18 08:37:24;;;;;;;103.33;24.67;;;;;;;-14.02;66.24;99748.34;124248;1147;22681;-69
2021/01/18 08:39:51;;;;;;;157.57;35.17;;;;;;;-13.99;66.58;99742.88;124318;1146;22658;-69
2021/01/18 08:42:30;;;;;;;131.60;32.90;;;;;;;-13.99;65.79;99741.11;124300;1146;23480;-69
2021/01/18 08:45:16;;;;;;;93.30;25.73;;;;;;;-14.02;66.22;99740.48;124195;1147;22662;-70
2021/01/18 08:47:52;;;;;;;120.37;29.17;;;;;;;-14.09;66.20;99739.18;124112;1147;23593;-71
2021/01/18 08:50:27;;;;;;;39.63;13.93;;;;;;;-14.21;65.43;99730.34;124115;1147;23270;-70
2021/01/18 08:52:59;;;;;;;43.90;15.80;;;;;;;-14.24;66.29;99734.92;124352;1147;22669;-69
2021/01/18 08:55:29;;;;;;;35.17;13.50;;;;;;;-14.18;66.00;99731.92;124151;1146;22730;-71
2021/01/18 08:58:00;;;;;;;146.43;36.40;;;;;;;-14.17;65.59;99731.83;124329;1147;23610;-69
2021/01/18 09:00:46;;;;;;;113.90;26.83;;;;;;;-14.20;66.04;99734.63;124059;1145;22773;-70
2021/01/18 09:03:20;;;;;;;269.77;54.57;;;;;;;-14.25;65.23;99725.38;124241;1147;22766;-71
2021/01/18 09:05:47;;;;;;;190.80;41.13;;;;;;;-14.37;66.33;99732.23;124091;1147;22731;-67
2021/01/18 09:08:16;;;;;;;100.10;24.50;;;;;;;-14.42;66.67;99736.94;124413;1146;22866;-70
2021/01/18 09:10:56;;;;;;;116.07;27.17;;;;;;;-14.43;66.46;99730.89;124050;1147;22770;-70
2021/01/18 09:13:25;;;;;;;91.93;22.70;;;;;;;-14.45;65.99;99721.45;124450;1146;22686;-71
2021/01/18 09:15:53;;;;;;;99.05;24.25;;;;;;;-14.41;66.89;99717.69;124191;1147;22676;-71
2021/01/18 09:18:22;;;;;;;85.87;22.50;;;;;;;-14.55;66.83;99692.39;124408;1147;24138;-66
2021/01/18 09:20:51;;;;;;;46.97;14.77;;;;;;;-14.33;66.73;99718.03;124123;1146;22683;-65
2021/01/18 09:23:19;;;;;;;46.67;16.60;;;;;;;-14.23;66.42;99713.89;124251;1148;23536;-65
2021/01/18 09:26:06;;;;;;;40.27;13.37;;;;;;;-14.25;66.01;99714.91;124045;1148;22841;-65
2021/01/18 09:28:33;;;;;;;57.60;17.90;;;;;;;-14.29;66.47;99703.83;124059;1148;22678;-66
2021/01/18 09:31:13;;;;;;;59.93;17.63;;;;;;;-14.21;66.20;99696.31;124290;1147;22642;-67
2021/01/18 09:33:41;;;;;;;56.43;18.93;;;;;;;-14.13;66.20;99699.27;124407;1145;22735;-67
2021/01/18 09:36:16;;;;;;;59.07;18.50;;;;;;;-14.03;66.56;99702.16;124327;1147;23479;-67
2021/01/18 09:38:44;;;;;;;81.83;26.30;;;;;;;-13.94;66.15;99698.93;124382;1147;22685;-66
2021/01/18 09:41:13;;;;;;;60.00;17.80;;;;;;;-13.82;65.82;99692.05;124344;1147;22746;-67
2021/01/18 09:43:42;;;;;;;45.50;17.00;;;;;;;-13.79;65.33;99690.08;124440;1148;22691;-67
2021/01/18 09:46:09;;;;;;;71.87;19.47;;;;;;;-13.78;65.65;99683.06;124327;1146;22821;-67
2021/01/18 09:48:38;;;;;;;95.57;27.67;;;;;;;-13.74;65.49;99687.17;124571;1145;23251;-68
2021/01/18 09:51:10;;;;;;;48.60;15.10;;;;;;;-13.72;65.31;99686.13;124366;1145;29237;-65
2021/01/18 09:53:38;;;;;;;43.50;14.23;;;;;;;-13.77;65.11;99680.34;124546;1145;23265;-68
2021/01/18 09:56:12;;;;;;;37.03;13.20;;;;;;;-13.72;65.96;99683.52;122693;1146;23199;-66
2021/01/18 09:58:51;;;;;;;57.10;17.27;;;;;;;-13.67;65.53;99683.19;120006;1147;22942;-66
2021/01/18 10:01:18;;;;;;;34.23;13.27;;;;;;;-13.70;64.77;99689.46;124250;1145;22772;-67
2021/01/18 10:03:56;;;;;;;34.10;12.13;;;;;;;-13.70;65.05;99686.00;124462;1146;22693;-67
2021/01/18 10:06:27;;;;;;;45.33;14.13;;;;;;;-13.69;65.02;99688.52;124321;1145;22721;-67
2021/01/18 10:09:02;;;;;;;42.63;14.63;;;;;;;-13.66;64.83;99687.48;124485;1146;23846;-67
2021/01/18 10:11:47;;;;;;;49.37;14.80;;;;;;;-13.61;65.26;99686.25;124345;1145;22672;-66
2021/01/18 10:14:19;;;;;;;44.53;14.70;;;;;;;-13.55;65.17;99690.23;124455;1145;23639;-67
2021/01/18 10:17:06;;;;;;;30.53;12.73;;;;;;;-13.48;65.57;99686.27;124490;1145;24263;-67
2021/01/18 10:19:35;;;;;;;31.27;11.50;;;;;;;-13.37;65.42;99682.92;124504;1145;23900;-67
2021/01/18 10:22:04;;;;;;;32.80;12.70;;;;;;;-13.22;65.45;99681.89;124446;1145;22662;-67
2021/01/18 10:24:33;;;;;;;28.47;12.03;;;;;;;-13.07;65.50;99679.97;124578;1145;22664;-67
2021/01/18 10:27:13;;;;;;;31.95;12.95;;;;;;;-12.93;65.06;99679.86;124511;1145;22729;-68
2021/01/18 10:29:41;;;;;;;28.63;10.77;;;;;;;-12.87;64.67;99679.45;124453;1146;22693;-65
2021/01/18 10:32:09;;;;;;;29.90;11.17;;;;;;;-12.79;64.87;99681.52;124446;1145;22700;-66
2021/01/18 10:34:37;;;;;;;30.03;11.33;;;;;;;-12.74;64.33;99682.05;124382;1145;22687;-68
2021/01/18 10:37:26;;;;;;;29.50;10.40;;;;;;;-12.74;63.43;99676.80;124467;1146;23292;-65
2021/01/18 10:40:02;;;;;;;35.87;12.60;;;;;;;-12.74;63.87;99672.40;124330;1145;22672;-65
2021/01/18 10:42:29;;;;;;;44.17;17.00;;;;;;;-12.80;63.33;99678.06;124574;1145;22880;-66
2021/01/18 10:44:58;;;;;;;36.83;14.80;;;;;;;-12.83;63.55;99670.40;124384;1146;22762;-66
2021/01/18 10:47:29;;;;;;;32.57;12.83;;;;;;;-12.84;63.57;99676.62;124446;1145;23312;-66
2021/01/18 10:50:00;;;;;;;32.60;12.40;;;;;;;-12.82;63.56;99685.19;124410;1145;23626;-66
2021/01/18 10:52:32;;;;;;;33.10;13.63;;;;;;;-12.76;63.80;99684.78;124501;1145;22660;-67
2021/01/18 10:55:00;;;;;;;41.10;12.87;;;;;;;-12.70;63.33;99676.50;124405;1145;22684;-67
2021/01/18 10:57:45;;;;;;;39.17;14.37;;;;;;;-12.66;63.70;99677.09;124613;1145;22696;-66
2021/01/18 11:00:16;;;;;;;25.93;10.13;;;;;;;-12.64;63.10;99681.30;124349;1146;23834;-67
2021/01/18 11:02:58;;;;;;;27.07;9.00;;;;;;;-12.66;63.32;99683.18;124509;1145;22711;-67
2021/01/18 11:05:39;;;;;;;28.57;9.70;;;;;;;-12.76;62.68;99684.78;124420;1145;22667;-67
2021/01/18 11:08:08;;;;;;;18.73;7.70;;;;;;;-12.82;63.51;99687.81;124474;1146;22692;-67
2021/01/18 11:10:37;;;;;;;26.00;9.37;;;;;;;-12.75;63.29;99682.99;124322;1146;22680;-66
2021/01/18 11:13:12;;;;;;;27.80;9.27;;;;;;;-12.68;63.46;99674.57;124518;1145;22644;-67
2021/01/18 11:15:43;;;;;;;24.17;10.07;;;;;;;-12.58;63.17;99674.78;124346;1145;22664;-66
2021/01/18 11:18:11;;;;;;;31.40;9.77;;;;;;;-12.60;62.70;99669.64;124464;1145;22672;-65
2021/01/18 11:20:40;;;;;;;27.87;10.73;;;;;;;-12.69;63.18;99670.27;124414;1145;22689;-66
2021/01/18 11:23:10;;;;;;;25.97;10.20;;;;;;;-12.79;62.99;99666.63;124486;1145;22683;-67
2021/01/18 11:25:38;;;;;;;30.50;12.53;;;;;;;-12.87;63.52;99669.80;123530;1146;25898;-66
2021/01/18 11:28:13;;;;;;;21.77;8.67;;;;;;;-12.87;63.51;99666.34;124461;1146;22707;-67
2021/01/18 11:30:43;;;;;;;24.10;9.57;;;;;;;-12.85;63.73;99663.61;124293;1145;22762;-67
2021/01/18 11:33:11;;;;;;;26.23;10.67;;;;;;;-12.83;63.94;99665.16;124507;1145;22684;-67
2021/01/18 11:35:42;;;;;;;24.97;9.70;;;;;;;-12.87;63.90;99663.71;124335;1145;22660;-67
2021/01/18 11:38:10;;;;;;;26.23;9.83;;;;;;;-12.89;63.78;99674.30;124435;1146;22747;-66
2021/01/18 11:40:38;;;;;;;23.00;9.93;;;;;;;-12.85;64.36;99679.34;124373;1146;23344;-67